sensor_id;sensor_type;location;lat;lon;timestamp;temperature;humidity
66522;SHT31;53349;53.538;8.584;2023-05-07T00:01:40;10.66;74.29
66522;SHT31;53349;53.538;8.584;2023-05-07T00:04:05;10.62;74.27
66522;SHT31;53349;53.538;8.584;2023-05-07T00:06:32;10.61;74.42
66522;SHT31;53349;53.538;8.584;2023-05-07T00:08:58;10.59;74.40
66522;SHT31;53349;53.538;8.584;2023-05-07T00:11:24;10.56;74.44
66522;SHT31;53349;53.538;8.584;2023-05-07T00:13:49;10.62;74.49
66522;SHT31;53349;53.538;8.584;2023-05-07T00:16:16;10.61;74.49
66522;SHT31;53349;53.538;8.584;2023-05-07T00:18:41;10.56;74.47
66522;SHT31;53349;53.538;8.584;2023-05-07T00:21:06;10.61;74.42
66522;SHT31;53349;53.538;8.584;2023-05-07T00:23:32;10.59;74.38
66522;SHT31;53349;53.538;8.584;2023-05-07T00:25:57;10.59;74.21
66522;SHT31;53349;53.538;8.584;2023-05-07T00:28:23;10.54;74.49
66522;SHT31;53349;53.538;8.584;2023-05-07T00:30:48;10.51;74.38
66522;SHT31;53349;53.538;8.584;2023-05-07T00:33:13;10.54;74.41
66522;SHT31;53349;53.538;8.584;2023-05-07T00:35:39;10.48;74.37
66522;SHT31;53349;53.538;8.584;2023-05-07T00:38:04;10.54;74.42
66522;SHT31;53349;53.538;8.584;2023-05-07T00:40:29;10.51;74.24
66522;SHT31;53349;53.538;8.584;2023-05-07T00:42:54;10.44;74.38
66522;SHT31;53349;53.538;8.584;2023-05-07T00:45:20;10.38;74.48
66522;SHT31;53349;53.538;8.584;2023-05-07T00:47:45;10.33;74.79
66522;SHT31;53349;53.538;8.584;2023-05-07T00:50:10;10.37;74.75
66522;SHT31;53349;53.538;8.584;2023-05-07T00:52:37;10.31;74.81
66522;SHT31;53349;53.538;8.584;2023-05-07T00:55:05;10.34;74.86
66522;SHT31;53349;53.538;8.584;2023-05-07T00:57:34;10.28;74.99
66522;SHT31;53349;53.538;8.584;2023-05-07T01:00:01;10.30;75.09
66522;SHT31;53349;53.538;8.584;2023-05-07T01:02:27;10.25;75.02
66522;SHT31;53349;53.538;8.584;2023-05-07T01:04:53;10.20;75.30
66522;SHT31;53349;53.538;8.584;2023-05-07T01:07:18;10.14;75.53
66522;SHT31;53349;53.538;8.584;2023-05-07T01:09:44;10.15;75.59
66522;SHT31;53349;53.538;8.584;2023-05-07T01:12:10;10.18;75.55
66522;SHT31;53349;53.538;8.584;2023-05-07T01:14:35;10.21;75.40
66522;SHT31;53349;53.538;8.584;2023-05-07T01:17:01;10.15;75.57
66522;SHT31;53349;53.538;8.584;2023-05-07T01:19:28;10.24;75.56
66522;SHT31;53349;53.538;8.584;2023-05-07T01:22:01;10.24;75.49
66522;SHT31;53349;53.538;8.584;2023-05-07T01:24:28;10.17;75.48
66522;SHT31;53349;53.538;8.584;2023-05-07T01:26:54;10.20;75.30
66522;SHT31;53349;53.538;8.584;2023-05-07T01:29:19;10.18;75.20
66522;SHT31;53349;53.538;8.584;2023-05-07T01:31:45;10.17;75.30
66522;SHT31;53349;53.538;8.584;2023-05-07T01:34:12;10.18;75.32
66522;SHT31;53349;53.538;8.584;2023-05-07T01:36:38;10.24;75.27
66522;SHT31;53349;53.538;8.584;2023-05-07T01:39:05;10.25;75.20
66522;SHT31;53349;53.538;8.584;2023-05-07T01:41:32;10.21;75.17
66522;SHT31;53349;53.538;8.584;2023-05-07T01:43:59;10.17;75.26
66522;SHT31;53349;53.538;8.584;2023-05-07T01:46:26;10.07;75.48
66522;SHT31;53349;53.538;8.584;2023-05-07T01:48:54;10.07;75.70
66522;SHT31;53349;53.538;8.584;2023-05-07T01:51:20;10.07;75.62
66522;SHT31;53349;53.538;8.584;2023-05-07T01:53:46;10.04;75.74
66522;SHT31;53349;53.538;8.584;2023-05-07T01:56:11;10.06;75.77
66522;SHT31;53349;53.538;8.584;2023-05-07T01:58:36;10.04;75.68
66522;SHT31;53349;53.538;8.584;2023-05-07T02:01:02;10.01;75.68
66522;SHT31;53349;53.538;8.584;2023-05-07T02:03:27;9.98;75.73
66522;SHT31;53349;53.538;8.584;2023-05-07T02:05:53;9.98;75.84
66522;SHT31;53349;53.538;8.584;2023-05-07T02:08:18;10.00;75.79
66522;SHT31;53349;53.538;8.584;2023-05-07T02:10:44;9.98;75.84
66522;SHT31;53349;53.538;8.584;2023-05-07T02:13:10;9.97;75.85
66522;SHT31;53349;53.538;8.584;2023-05-07T02:15:35;10.01;75.77
66522;SHT31;53349;53.538;8.584;2023-05-07T02:20:28;9.96;75.85
66522;SHT31;53349;53.538;8.584;2023-05-07T02:22:53;9.90;76.01
66522;SHT31;53349;53.538;8.584;2023-05-07T02:25:18;9.91;76.14
66522;SHT31;53349;53.538;8.584;2023-05-07T02:27:44;9.90;76.20
66522;SHT31;53349;53.538;8.584;2023-05-07T02:30:09;9.86;76.25
66522;SHT31;53349;53.538;8.584;2023-05-07T02:32:35;9.89;76.15
66522;SHT31;53349;53.538;8.584;2023-05-07T02:35:00;9.89;76.29
66522;SHT31;53349;53.538;8.584;2023-05-07T02:37:26;9.89;76.33
66522;SHT31;53349;53.538;8.584;2023-05-07T02:39:55;9.82;76.23
66522;SHT31;53349;53.538;8.584;2023-05-07T02:42:21;9.76;76.43
66522;SHT31;53349;53.538;8.584;2023-05-07T02:44:47;9.77;76.44
66522;SHT31;53349;53.538;8.584;2023-05-07T02:47:14;9.75;76.47
66522;SHT31;53349;53.538;8.584;2023-05-07T02:49:40;9.80;76.42
66522;SHT31;53349;53.538;8.584;2023-05-07T02:52:05;9.76;76.37
66522;SHT31;53349;53.538;8.584;2023-05-07T02:54:32;9.77;76.38
66522;SHT31;53349;53.538;8.584;2023-05-07T02:56:57;9.83;76.35
66522;SHT31;53349;53.538;8.584;2023-05-07T02:59:23;9.83;76.14
66522;SHT31;53349;53.538;8.584;2023-05-07T03:01:48;9.73;76.12
66522;SHT31;53349;53.538;8.584;2023-05-07T03:04:14;9.75;76.21
66522;SHT31;53349;53.538;8.584;2023-05-07T03:06:39;9.79;76.07
66522;SHT31;53349;53.538;8.584;2023-05-07T03:09:04;9.82;75.96
66522;SHT31;53349;53.538;8.584;2023-05-07T03:11:30;9.86;75.86
66522;SHT31;53349;53.538;8.584;2023-05-07T03:13:56;9.77;75.95
66522;SHT31;53349;53.538;8.584;2023-05-07T03:16:21;9.76;76.15
66522;SHT31;53349;53.538;8.584;2023-05-07T03:18:46;9.75;76.16
66522;SHT31;53349;53.538;8.584;2023-05-07T03:21:12;9.73;76.07
66522;SHT31;53349;53.538;8.584;2023-05-07T03:23:37;9.75;76.17
66522;SHT31;53349;53.538;8.584;2023-05-07T03:26:03;9.76;76.05
66522;SHT31;53349;53.538;8.584;2023-05-07T03:28:28;9.79;76.01
66522;SHT31;53349;53.538;8.584;2023-05-07T03:30:54;9.75;76.08
66522;SHT31;53349;53.538;8.584;2023-05-07T03:33:19;9.70;76.09
66522;SHT31;53349;53.538;8.584;2023-05-07T03:35:44;9.69;76.08
66522;SHT31;53349;53.538;8.584;2023-05-07T03:38:10;9.70;75.99
66522;SHT31;53349;53.538;8.584;2023-05-07T03:40:35;9.67;75.88
66522;SHT31;53349;53.538;8.584;2023-05-07T03:43:01;9.67;75.74
66522;SHT31;53349;53.538;8.584;2023-05-07T03:45:27;9.67;75.57
66522;SHT31;53349;53.538;8.584;2023-05-07T03:47:53;9.73;75.47
66522;SHT31;53349;53.538;8.584;2023-05-07T03:50:19;9.65;75.38
66522;SHT31;53349;53.538;8.584;2023-05-07T03:52:46;9.69;75.25
66522;SHT31;53349;53.538;8.584;2023-05-07T03:55:11;9.70;75.02
66522;SHT31;53349;53.538;8.584;2023-05-07T03:57:36;9.69;74.98
66522;SHT31;53349;53.538;8.584;2023-05-07T04:00:03;9.67;75.00
66522;SHT31;53349;53.538;8.584;2023-05-07T04:02:28;9.69;75.09
66522;SHT31;53349;53.538;8.584;2023-05-07T04:04:54;9.73;75.01
66522;SHT31;53349;53.538;8.584;2023-05-07T04:07:19;9.72;74.89
66522;SHT31;53349;53.538;8.584;2023-05-07T04:09:45;9.66;75.05
66522;SHT31;53349;53.538;8.584;2023-05-07T04:12:10;9.72;75.05
66522;SHT31;53349;53.538;8.584;2023-05-07T04:14:35;9.70;74.87
66522;SHT31;53349;53.538;8.584;2023-05-07T04:17:01;9.66;74.86
66522;SHT31;53349;53.538;8.584;2023-05-07T04:19:27;9.70;74.87
66522;SHT31;53349;53.538;8.584;2023-05-07T04:21:52;9.66;74.61
66522;SHT31;53349;53.538;8.584;2023-05-07T04:24:19;9.66;74.43
66522;SHT31;53349;53.538;8.584;2023-05-07T04:26:45;9.62;74.46
66522;SHT31;53349;53.538;8.584;2023-05-07T04:29:11;9.60;74.38
66522;SHT31;53349;53.538;8.584;2023-05-07T04:31:36;9.62;74.53
66522;SHT31;53349;53.538;8.584;2023-05-07T04:34:01;9.60;74.44
66522;SHT31;53349;53.538;8.584;2023-05-07T04:36:26;9.63;74.42
66522;SHT31;53349;53.538;8.584;2023-05-07T04:38:52;9.65;74.30
66522;SHT31;53349;53.538;8.584;2023-05-07T04:41:17;9.62;74.33
66522;SHT31;53349;53.538;8.584;2023-05-07T04:43:43;9.62;74.40
66522;SHT31;53349;53.538;8.584;2023-05-07T04:46:10;9.60;74.38
66522;SHT31;53349;53.538;8.584;2023-05-07T04:48:35;9.62;74.44
66522;SHT31;53349;53.538;8.584;2023-05-07T04:51:01;9.62;74.54
66522;SHT31;53349;53.538;8.584;2023-05-07T04:53:27;9.62;74.63
66522;SHT31;53349;53.538;8.584;2023-05-07T04:55:59;9.63;74.44
66522;SHT31;53349;53.538;8.584;2023-05-07T04:58:25;9.59;74.37
66522;SHT31;53349;53.538;8.584;2023-05-07T05:00:50;9.59;74.32
66522;SHT31;53349;53.538;8.584;2023-05-07T05:03:16;9.57;74.40
66522;SHT31;53349;53.538;8.584;2023-05-07T05:05:43;9.62;74.29
66522;SHT31;53349;53.538;8.584;2023-05-07T05:08:08;9.63;74.19
66522;SHT31;53349;53.538;8.584;2023-05-07T05:10:34;9.62;74.09
66522;SHT31;53349;53.538;8.584;2023-05-07T05:12:59;9.63;74.05
66522;SHT31;53349;53.538;8.584;2023-05-07T05:15:24;9.63;74.05
66522;SHT31;53349;53.538;8.584;2023-05-07T05:17:50;9.65;73.84
66522;SHT31;53349;53.538;8.584;2023-05-07T05:20:15;9.65;73.85
66522;SHT31;53349;53.538;8.584;2023-05-07T05:22:41;9.70;73.72
66522;SHT31;53349;53.538;8.584;2023-05-07T05:25:07;9.67;73.65
66522;SHT31;53349;53.538;8.584;2023-05-07T05:27:32;9.67;73.73
66522;SHT31;53349;53.538;8.584;2023-05-07T05:29:57;9.69;73.81
66522;SHT31;53349;53.538;8.584;2023-05-07T05:32:23;9.70;73.71
66522;SHT31;53349;53.538;8.584;2023-05-07T05:34:48;9.73;73.59
66522;SHT31;53349;53.538;8.584;2023-05-07T05:37:15;9.70;73.53
66522;SHT31;53349;53.538;8.584;2023-05-07T05:39:40;9.73;73.51
66522;SHT31;53349;53.538;8.584;2023-05-07T05:42:05;9.75;73.48
66522;SHT31;53349;53.538;8.584;2023-05-07T05:44:31;9.77;73.45
66522;SHT31;53349;53.538;8.584;2023-05-07T05:46:56;9.79;73.45
66522;SHT31;53349;53.538;8.584;2023-05-07T05:49:23;9.82;73.43
66522;SHT31;53349;53.538;8.584;2023-05-07T05:51:49;9.83;73.26
66522;SHT31;53349;53.538;8.584;2023-05-07T05:54:15;9.86;73.30
66522;SHT31;53349;53.538;8.584;2023-05-07T05:56:41;9.83;73.23
66522;SHT31;53349;53.538;8.584;2023-05-07T05:59:06;9.90;73.09
66522;SHT31;53349;53.538;8.584;2023-05-07T06:01:32;9.91;73.08
66522;SHT31;53349;53.538;8.584;2023-05-07T06:03:57;10.00;72.97
66522;SHT31;53349;53.538;8.584;2023-05-07T06:06:23;10.01;72.74
66522;SHT31;53349;53.538;8.584;2023-05-07T06:08:49;9.98;72.57
66522;SHT31;53349;53.538;8.584;2023-05-07T06:11:14;10.00;72.63
66522;SHT31;53349;53.538;8.584;2023-05-07T06:13:39;10.04;72.70
66522;SHT31;53349;53.538;8.584;2023-05-07T06:16:05;10.04;72.56
66522;SHT31;53349;53.538;8.584;2023-05-07T06:18:31;10.06;72.49
66522;SHT31;53349;53.538;8.584;2023-05-07T06:20:56;10.07;72.63
66522;SHT31;53349;53.538;8.584;2023-05-07T06:23:21;10.04;72.59
66522;SHT31;53349;53.538;8.584;2023-05-07T06:25:48;10.07;72.60
66522;SHT31;53349;53.538;8.584;2023-05-07T06:28:14;10.03;72.77
66522;SHT31;53349;53.538;8.584;2023-05-07T06:30:39;10.03;72.49
66522;SHT31;53349;53.538;8.584;2023-05-07T06:33:04;10.13;72.41
66522;SHT31;53349;53.538;8.584;2023-05-07T06:35:31;10.11;72.23
66522;SHT31;53349;53.538;8.584;2023-05-07T06:37:56;10.11;72.14
66522;SHT31;53349;53.538;8.584;2023-05-07T06:40:21;10.08;72.11
66522;SHT31;53349;53.538;8.584;2023-05-07T06:42:46;10.08;72.30
66522;SHT31;53349;53.538;8.584;2023-05-07T06:45:12;10.11;72.41
66522;SHT31;53349;53.538;8.584;2023-05-07T06:47:37;10.14;72.26
66522;SHT31;53349;53.538;8.584;2023-05-07T06:50:02;10.21;71.95
66522;SHT31;53349;53.538;8.584;2023-05-07T06:52:28;10.25;71.66
66522;SHT31;53349;53.538;8.584;2023-05-07T06:54:53;10.27;71.60
66522;SHT31;53349;53.538;8.584;2023-05-07T06:57:19;10.28;71.50
66522;SHT31;53349;53.538;8.584;2023-05-07T06:59:45;10.27;71.41
66522;SHT31;53349;53.538;8.584;2023-05-07T07:02:11;10.28;71.35
66522;SHT31;53349;53.538;8.584;2023-05-07T07:04:36;10.30;71.32
66522;SHT31;53349;53.538;8.584;2023-05-07T07:07:03;10.31;71.45
66522;SHT31;53349;53.538;8.584;2023-05-07T07:09:28;10.33;71.48
66522;SHT31;53349;53.538;8.584;2023-05-07T07:11:53;10.37;71.45
66522;SHT31;53349;53.538;8.584;2023-05-07T07:14:19;10.38;71.47
66522;SHT31;53349;53.538;8.584;2023-05-07T07:16:44;10.44;71.32
66522;SHT31;53349;53.538;8.584;2023-05-07T07:19:09;10.38;71.34
66522;SHT31;53349;53.538;8.584;2023-05-07T07:21:34;10.44;71.48
66522;SHT31;53349;53.538;8.584;2023-05-07T07:24:01;10.45;71.35
66522;SHT31;53349;53.538;8.584;2023-05-07T07:26:26;10.51;71.16
66522;SHT31;53349;53.538;8.584;2023-05-07T07:28:53;10.55;71.16
66522;SHT31;53349;53.538;8.584;2023-05-07T07:31:18;10.59;71.11
66522;SHT31;53349;53.538;8.584;2023-05-07T07:33:43;10.62;70.75
66522;SHT31;53349;53.538;8.584;2023-05-07T07:36:09;10.61;70.72
66522;SHT31;53349;53.538;8.584;2023-05-07T07:38:34;10.62;70.75
66522;SHT31;53349;53.538;8.584;2023-05-07T07:41:00;10.73;70.68
66522;SHT31;53349;53.538;8.584;2023-05-07T07:43:27;10.69;70.67
66522;SHT31;53349;53.538;8.584;2023-05-07T07:45:52;10.73;70.60
66522;SHT31;53349;53.538;8.584;2023-05-07T07:48:17;10.68;70.66
66522;SHT31;53349;53.538;8.584;2023-05-07T07:50:43;10.69;70.61
66522;SHT31;53349;53.538;8.584;2023-05-07T07:53:08;10.76;70.61
66522;SHT31;53349;53.538;8.584;2023-05-07T07:55:43;10.85;70.37
66522;SHT31;53349;53.538;8.584;2023-05-07T07:58:09;10.80;70.26
66522;SHT31;53349;53.538;8.584;2023-05-07T08:00:34;10.83;70.41
66522;SHT31;53349;53.538;8.584;2023-05-07T08:03:00;10.80;70.44
66522;SHT31;53349;53.538;8.584;2023-05-07T08:05:25;10.80;70.35
66522;SHT31;53349;53.538;8.584;2023-05-07T08:07:50;10.85;70.39
66522;SHT31;53349;53.538;8.584;2023-05-07T08:10:16;10.89;70.36
66522;SHT31;53349;53.538;8.584;2023-05-07T08:12:42;10.91;70.15
66522;SHT31;53349;53.538;8.584;2023-05-07T08:15:09;10.92;70.11
66522;SHT31;53349;53.538;8.584;2023-05-07T08:17:34;10.93;70.05
66522;SHT31;53349;53.538;8.584;2023-05-07T08:19:59;10.95;69.90
66522;SHT31;53349;53.538;8.584;2023-05-07T08:22:25;10.97;69.94
66522;SHT31;53349;53.538;8.584;2023-05-07T08:24:50;10.96;69.86
66522;SHT31;53349;53.538;8.584;2023-05-07T08:27:16;10.99;69.94
66522;SHT31;53349;53.538;8.584;2023-05-07T08:29:43;11.05;70.03
66522;SHT31;53349;53.538;8.584;2023-05-07T08:32:08;11.10;69.73
66522;SHT31;53349;53.538;8.584;2023-05-07T08:34:35;11.02;69.77
66522;SHT31;53349;53.538;8.584;2023-05-07T08:37:00;11.15;69.49
66522;SHT31;53349;53.538;8.584;2023-05-07T08:39:26;11.16;69.57
66522;SHT31;53349;53.538;8.584;2023-05-07T08:41:54;11.22;69.45
66522;SHT31;53349;53.538;8.584;2023-05-07T08:44:22;11.22;69.38
66522;SHT31;53349;53.538;8.584;2023-05-07T08:46:49;11.22;69.51
66522;SHT31;53349;53.538;8.584;2023-05-07T08:49:17;11.17;69.58
66522;SHT31;53349;53.538;8.584;2023-05-07T08:51:42;11.17;69.71
66522;SHT31;53349;53.538;8.584;2023-05-07T08:54:08;11.17;69.69
66522;SHT31;53349;53.538;8.584;2023-05-07T08:56:35;11.19;69.66
66522;SHT31;53349;53.538;8.584;2023-05-07T08:59:00;11.24;69.65
66522;SHT31;53349;53.538;8.584;2023-05-07T09:01:25;11.34;70.82
66522;SHT31;53349;53.538;8.584;2023-05-07T09:03:51;11.36;70.60
66522;SHT31;53349;53.538;8.584;2023-05-07T09:06:17;11.40;70.42
66522;SHT31;53349;53.538;8.584;2023-05-07T09:08:50;11.41;70.08
66522;SHT31;53349;53.538;8.584;2023-05-07T09:11:16;11.46;69.88
66522;SHT31;53349;53.538;8.584;2023-05-07T09:13:44;11.38;69.85
66522;SHT31;53349;53.538;8.584;2023-05-07T09:16:10;11.50;69.93
66522;SHT31;53349;53.538;8.584;2023-05-07T09:18:43;11.56;69.87
66522;SHT31;53349;53.538;8.584;2023-05-07T09:21:16;11.71;70.22
66522;SHT31;53349;53.538;8.584;2023-05-07T09:23:41;11.91;70.14
66522;SHT31;53349;53.538;8.584;2023-05-07T09:26:07;12.04;69.58
66522;SHT31;53349;53.538;8.584;2023-05-07T09:28:32;11.95;67.99
66522;SHT31;53349;53.538;8.584;2023-05-07T09:30:58;11.81;68.02
66522;SHT31;53349;53.538;8.584;2023-05-07T09:33:27;11.79;68.08
66522;SHT31;53349;53.538;8.584;2023-05-07T09:35:53;11.73;68.23
66522;SHT31;53349;53.538;8.584;2023-05-07T09:38:21;11.74;68.30
66522;SHT31;53349;53.538;8.584;2023-05-07T09:40:47;11.74;68.24
66522;SHT31;53349;53.538;8.584;2023-05-07T09:43:26;11.75;68.35
66522;SHT31;53349;53.538;8.584;2023-05-07T09:45:51;11.77;68.23
66522;SHT31;53349;53.538;8.584;2023-05-07T09:48:19;11.85;68.19
66522;SHT31;53349;53.538;8.584;2023-05-07T09:50:49;11.88;68.07
66522;SHT31;53349;53.538;8.584;2023-05-07T09:53:17;11.95;67.97
66522;SHT31;53349;53.538;8.584;2023-05-07T09:55:44;11.96;67.79
66522;SHT31;53349;53.538;8.584;2023-05-07T09:58:12;11.92;67.66
66522;SHT31;53349;53.538;8.584;2023-05-07T10:00:39;11.91;67.78
66522;SHT31;53349;53.538;8.584;2023-05-07T10:03:07;11.94;67.64
66522;SHT31;53349;53.538;8.584;2023-05-07T10:05:33;11.98;67.72
66522;SHT31;53349;53.538;8.584;2023-05-07T10:07:59;12.06;67.70
66522;SHT31;53349;53.538;8.584;2023-05-07T10:10:27;12.02;67.74
66522;SHT31;53349;53.538;8.584;2023-05-07T10:12:52;12.04;67.64
66522;SHT31;53349;53.538;8.584;2023-05-07T10:15:22;12.06;67.59
66522;SHT31;53349;53.538;8.584;2023-05-07T10:17:48;12.09;67.50
66522;SHT31;53349;53.538;8.584;2023-05-07T10:20:13;12.21;67.55
66522;SHT31;53349;53.538;8.584;2023-05-07T10:22:42;12.14;67.46
66522;SHT31;53349;53.538;8.584;2023-05-07T10:25:34;12.12;67.50
66522;SHT31;53349;53.538;8.584;2023-05-07T10:28:06;12.11;67.55
66522;SHT31;53349;53.538;8.584;2023-05-07T10:30:53;12.16;67.46
66522;SHT31;53349;53.538;8.584;2023-05-07T10:33:25;12.19;67.22
66522;SHT31;53349;53.538;8.584;2023-05-07T10:35:57;12.15;67.17
66522;SHT31;53349;53.538;8.584;2023-05-07T10:38:22;12.14;67.21
66522;SHT31;53349;53.538;8.584;2023-05-07T10:40:47;12.19;67.38
66522;SHT31;53349;53.538;8.584;2023-05-07T10:43:13;12.26;67.18
66522;SHT31;53349;53.538;8.584;2023-05-07T10:45:41;12.29;67.17
66522;SHT31;53349;53.538;8.584;2023-05-07T10:48:11;12.35;67.14
66522;SHT31;53349;53.538;8.584;2023-05-07T10:50:46;12.47;67.01
66522;SHT31;53349;53.538;8.584;2023-05-07T10:55:50;12.61;66.17
66522;SHT31;53349;53.538;8.584;2023-05-07T10:58:25;12.61;66.46
66522;SHT31;53349;53.538;8.584;2023-05-07T11:01:07;12.70;66.36
66522;SHT31;53349;53.538;8.584;2023-05-07T11:03:33;12.72;66.42
66522;SHT31;53349;53.538;8.584;2023-05-07T11:06:18;12.74;66.43
66522;SHT31;53349;53.538;8.584;2023-05-07T11:08:57;12.80;66.40
66522;SHT31;53349;53.538;8.584;2023-05-07T11:11:45;12.87;66.13
66522;SHT31;53349;53.538;8.584;2023-05-07T11:14:11;12.83;66.18
66522;SHT31;53349;53.538;8.584;2023-05-07T11:16:37;12.79;66.12
66522;SHT31;53349;53.538;8.584;2023-05-07T11:19:03;12.81;66.13
66522;SHT31;53349;53.538;8.584;2023-05-07T11:21:36;12.83;66.13
66522;SHT31;53349;53.538;8.584;2023-05-07T11:24:05;12.90;66.02
66522;SHT31;53349;53.538;8.584;2023-05-07T11:26:47;12.98;65.86
66522;SHT31;53349;53.538;8.584;2023-05-07T11:29:31;12.97;65.80
66522;SHT31;53349;53.538;8.584;2023-05-07T11:31:58;12.94;65.77
66522;SHT31;53349;53.538;8.584;2023-05-07T11:34:25;13.04;65.81
66522;SHT31;53349;53.538;8.584;2023-05-07T11:36:54;13.08;65.74
66522;SHT31;53349;53.538;8.584;2023-05-07T11:39:27;13.08;65.42
66522;SHT31;53349;53.538;8.584;2023-05-07T11:41:53;13.17;65.53
66522;SHT31;53349;53.538;8.584;2023-05-07T11:44:19;13.21;65.36
66522;SHT31;53349;53.538;8.584;2023-05-07T11:46:44;13.24;65.29
66522;SHT31;53349;53.538;8.584;2023-05-07T11:49:10;13.35;65.26
66522;SHT31;53349;53.538;8.584;2023-05-07T11:51:35;13.38;64.99
66522;SHT31;53349;53.538;8.584;2023-05-07T11:54:03;13.42;64.72
66522;SHT31;53349;53.538;8.584;2023-05-07T11:56:33;13.45;64.70
66522;SHT31;53349;53.538;8.584;2023-05-07T11:59:02;13.59;64.65
66522;SHT31;53349;53.538;8.584;2023-05-07T12:01:28;13.62;64.33
66522;SHT31;53349;53.538;8.584;2023-05-07T12:03:54;13.70;64.40
66522;SHT31;53349;53.538;8.584;2023-05-07T12:06:22;13.70;64.19
66522;SHT31;53349;53.538;8.584;2023-05-07T12:08:48;13.70;64.22
66522;SHT31;53349;53.538;8.584;2023-05-07T12:11:18;13.83;64.35
66522;SHT31;53349;53.538;8.584;2023-05-07T12:13:46;13.93;64.37
66522;SHT31;53349;53.538;8.584;2023-05-07T12:16:12;13.96;64.19
66522;SHT31;53349;53.538;8.584;2023-05-07T12:18:38;14.00;64.45
66522;SHT31;53349;53.538;8.584;2023-05-07T12:21:05;14.09;64.44
66522;SHT31;53349;53.538;8.584;2023-05-07T12:23:30;14.13;64.55
66522;SHT31;53349;53.538;8.584;2023-05-07T12:25:56;14.18;64.31
66522;SHT31;53349;53.538;8.584;2023-05-07T12:28:21;14.17;64.20
66522;SHT31;53349;53.538;8.584;2023-05-07T12:30:48;14.20;64.05
66522;SHT31;53349;53.538;8.584;2023-05-07T12:33:18;14.26;63.91
66522;SHT31;53349;53.538;8.584;2023-05-07T12:35:44;14.23;63.79
66522;SHT31;53349;53.538;8.584;2023-05-07T12:38:12;14.26;63.60
66522;SHT31;53349;53.538;8.584;2023-05-07T12:40:45;14.36;63.37
66522;SHT31;53349;53.538;8.584;2023-05-07T12:43:20;14.38;63.43
66522;SHT31;53349;53.538;8.584;2023-05-07T12:45:48;14.54;63.46
66522;SHT31;53349;53.538;8.584;2023-05-07T12:48:14;14.65;63.29
66522;SHT31;53349;53.538;8.584;2023-05-07T12:50:42;14.68;62.56
66522;SHT31;53349;53.538;8.584;2023-05-07T12:53:10;14.79;62.66
66522;SHT31;53349;53.538;8.584;2023-05-07T12:55:44;14.88;62.23
66522;SHT31;53349;53.538;8.584;2023-05-07T12:58:20;14.88;61.84
66522;SHT31;53349;53.538;8.584;2023-05-07T13:00:51;14.95;61.83
66522;SHT31;53349;53.538;8.584;2023-05-07T13:03:30;14.99;61.50
66522;SHT31;53349;53.538;8.584;2023-05-07T13:06:03;15.00;61.57
66522;SHT31;53349;53.538;8.584;2023-05-07T13:08:34;15.00;61.60
66522;SHT31;53349;53.538;8.584;2023-05-07T13:11:01;15.12;61.65
66522;SHT31;53349;53.538;8.584;2023-05-07T13:13:27;15.12;61.34
66522;SHT31;53349;53.538;8.584;2023-05-07T13:15:53;15.22;61.25
66522;SHT31;53349;53.538;8.584;2023-05-07T13:18:20;15.22;61.41
66522;SHT31;53349;53.538;8.584;2023-05-07T13:20:46;15.29;61.21
66522;SHT31;53349;53.538;8.584;2023-05-07T13:23:11;15.36;61.06
66522;SHT31;53349;53.538;8.584;2023-05-07T13:25:38;15.27;60.94
66522;SHT31;53349;53.538;8.584;2023-05-07T13:28:04;15.29;61.11
66522;SHT31;53349;53.538;8.584;2023-05-07T13:30:29;15.33;60.84
66522;SHT31;53349;53.538;8.584;2023-05-07T13:32:55;15.35;60.87
66522;SHT31;53349;53.538;8.584;2023-05-07T13:35:21;15.36;60.81
66522;SHT31;53349;53.538;8.584;2023-05-07T13:37:46;15.39;60.83
66522;SHT31;53349;53.538;8.584;2023-05-07T13:40:11;15.40;60.74
66522;SHT31;53349;53.538;8.584;2023-05-07T13:42:39;15.46;60.95
66522;SHT31;53349;53.538;8.584;2023-05-07T13:45:04;15.50;60.57
66522;SHT31;53349;53.538;8.584;2023-05-07T13:47:30;15.53;60.57
66522;SHT31;53349;53.538;8.584;2023-05-07T13:49:55;15.58;60.49
66522;SHT31;53349;53.538;8.584;2023-05-07T13:52:21;15.63;60.33
66522;SHT31;53349;53.538;8.584;2023-05-07T13:54:46;15.58;60.16
66522;SHT31;53349;53.538;8.584;2023-05-07T13:57:13;15.63;60.26
66522;SHT31;53349;53.538;8.584;2023-05-07T13:59:38;15.49;59.92
66522;SHT31;53349;53.538;8.584;2023-05-07T14:02:07;15.37;60.33
66522;SHT31;53349;53.538;8.584;2023-05-07T14:04:32;15.42;60.45
66522;SHT31;53349;53.538;8.584;2023-05-07T14:06:57;15.50;60.70
66522;SHT31;53349;53.538;8.584;2023-05-07T14:09:22;15.61;60.49
66522;SHT31;53349;53.538;8.584;2023-05-07T14:11:48;15.73;60.97
66522;SHT31;53349;53.538;8.584;2023-05-07T14:14:13;15.70;60.28
66522;SHT31;53349;53.538;8.584;2023-05-07T14:16:38;15.74;60.64
66522;SHT31;53349;53.538;8.584;2023-05-07T14:19:03;15.84;60.64
66522;SHT31;53349;53.538;8.584;2023-05-07T14:21:32;15.91;60.39
66522;SHT31;53349;53.538;8.584;2023-05-07T14:23:57;15.86;59.84
66522;SHT31;53349;53.538;8.584;2023-05-07T14:26:22;15.88;59.97
66522;SHT31;53349;53.538;8.584;2023-05-07T14:28:48;15.95;59.54
66522;SHT31;53349;53.538;8.584;2023-05-07T14:31:14;15.94;59.49
66522;SHT31;53349;53.538;8.584;2023-05-07T14:33:43;15.90;59.39
66522;SHT31;53349;53.538;8.584;2023-05-07T14:36:09;15.94;59.86
66522;SHT31;53349;53.538;8.584;2023-05-07T14:38:34;15.98;59.76
66522;SHT31;53349;53.538;8.584;2023-05-07T14:41:00;16.00;59.48
66522;SHT31;53349;53.538;8.584;2023-05-07T14:43:25;15.97;59.40
66522;SHT31;53349;53.538;8.584;2023-05-07T14:45:56;15.98;59.42
66522;SHT31;53349;53.538;8.584;2023-05-07T14:48:22;15.95;59.43
66522;SHT31;53349;53.538;8.584;2023-05-07T14:50:48;15.98;59.17
66522;SHT31;53349;53.538;8.584;2023-05-07T14:53:14;15.98;59.35
66522;SHT31;53349;53.538;8.584;2023-05-07T14:55:39;16.07;59.41
66522;SHT31;53349;53.538;8.584;2023-05-07T14:58:06;16.17;59.58
66522;SHT31;53349;53.538;8.584;2023-05-07T15:00:31;16.24;59.24
66522;SHT31;53349;53.538;8.584;2023-05-07T15:03:05;16.18;58.84
66522;SHT31;53349;53.538;8.584;2023-05-07T15:05:30;16.09;58.85
66522;SHT31;53349;53.538;8.584;2023-05-07T15:07:56;16.05;59.03
66522;SHT31;53349;53.538;8.584;2023-05-07T15:10:21;16.01;59.02
66522;SHT31;53349;53.538;8.584;2023-05-07T15:12:46;15.97;59.04
66522;SHT31;53349;53.538;8.584;2023-05-07T15:15:12;15.97;59.01
66522;SHT31;53349;53.538;8.584;2023-05-07T15:17:37;15.94;58.57
66522;SHT31;53349;53.538;8.584;2023-05-07T15:20:02;15.95;58.65
66522;SHT31;53349;53.538;8.584;2023-05-07T15:22:30;15.97;58.99
66522;SHT31;53349;53.538;8.584;2023-05-07T15:24:56;15.87;58.85
66522;SHT31;53349;53.538;8.584;2023-05-07T15:27:22;15.86;58.93
66522;SHT31;53349;53.538;8.584;2023-05-07T15:29:48;15.81;58.61
66522;SHT31;53349;53.538;8.584;2023-05-07T15:32:13;15.81;58.53
66522;SHT31;53349;53.538;8.584;2023-05-07T15:34:39;15.90;58.68
66522;SHT31;53349;53.538;8.584;2023-05-07T15:37:04;15.93;58.76